sensor_id;sensor_type;location;lat;lon;timestamp;P1;durP1;ratioP1;P2;durP2;ratioP2
7479;SDS011;3781;42.272;22.658;2022-12-05T00:00:12;1.63;;;1.53;;
7479;SDS011;3781;42.272;22.658;2022-12-05T00:02:40;1.30;;;1.20;;
7479;SDS011;3781;42.272;22.658;2022-12-05T00:05:08;7.23;;;2.20;;
7479;SDS011;3781;42.272;22.658;2022-12-05T00:07:36;1.40;;;1.30;;
7479;SDS011;3781;42.272;22.658;2022-12-05T00:10:04;6.13;;;1.40;;
7479;SDS011;3781;42.272;22.658;2022-12-05T00:12:31;2.00;;;1.60;;
7479;SDS011;3781;42.272;22.658;2022-12-05T00:14:58;2.83;;;1.60;;
7479;SDS011;3781;42.272;22.658;2022-12-05T00:17:25;7.73;;;2.10;;
7479;SDS011;3781;42.272;22.658;2022-12-05T00:19:52;2.87;;;2.70;;
7479;SDS011;3781;42.272;22.658;2022-12-05T00:22:20;2.67;;;1.27;;
7479;SDS011;3781;42.272;22.658;2022-12-05T00:24:46;3.57;;;2.13;;
7479;SDS011;3781;42.272;22.658;2022-12-05T00:27:13;1.60;;;1.50;;
7479;SDS011;3781;42.272;22.658;2022-12-05T00:29:40;1.87;;;1.77;;
7479;SDS011;3781;42.272;22.658;2022-12-05T00:32:07;4.43;;;1.37;;
7479;SDS011;3781;42.272;22.658;2022-12-05T00:34:33;4.10;;;1.80;;
7479;SDS011;3781;42.272;22.658;2022-12-05T00:37:00;7.13;;;3.63;;
7479;SDS011;3781;42.272;22.658;2022-12-05T00:39:28;3.90;;;1.90;;
7479;SDS011;3781;42.272;22.658;2022-12-05T00:41:55;9.97;;;2.10;;
7479;SDS011;3781;42.272;22.658;2022-12-05T00:44:21;1.97;;;1.77;;
7479;SDS011;3781;42.272;22.658;2022-12-05T00:46:48;5.83;;;3.10;;
7479;SDS011;3781;42.272;22.658;2022-12-05T00:49:15;5.03;;;2.80;;
7479;SDS011;3781;42.272;22.658;2022-12-05T00:51:43;2.97;;;1.83;;
7479;SDS011;3781;42.272;22.658;2022-12-05T00:54:10;3.30;;;2.07;;
7479;SDS011;3781;42.272;22.658;2022-12-05T00:56:40;3.93;;;2.63;;
7479;SDS011;3781;42.272;22.658;2022-12-05T00:59:07;2.67;;;1.20;;
7479;SDS011;3781;42.272;22.658;2022-12-05T01:01:35;9.30;;;2.07;;
7479;SDS011;3781;42.272;22.658;2022-12-05T01:04:03;2.43;;;1.80;;
7479;SDS011;3781;42.272;22.658;2022-12-05T01:06:32;4.63;;;1.97;;
7479;SDS011;3781;42.272;22.658;2022-12-05T01:08:59;1.53;;;1.43;;
7479;SDS011;3781;42.272;22.658;2022-12-05T01:11:26;5.87;;;1.83;;
7479;SDS011;3781;42.272;22.658;2022-12-05T01:13:54;2.83;;;1.47;;
7479;SDS011;3781;42.272;22.658;2022-12-05T01:16:23;2.70;;;1.83;;
7479;SDS011;3781;42.272;22.658;2022-12-05T01:18:51;2.97;;;2.77;;
7479;SDS011;3781;42.272;22.658;2022-12-05T01:21:18;1.17;;;1.17;;
7479;SDS011;3781;42.272;22.658;2022-12-05T01:23:46;4.97;;;1.30;;
7479;SDS011;3781;42.272;22.658;2022-12-05T01:26:13;1.67;;;1.27;;
7479;SDS011;3781;42.272;22.658;2022-12-05T01:28:42;2.33;;;2.23;;
7479;SDS011;3781;42.272;22.658;2022-12-05T01:31:13;10.23;;;2.23;;
7479;SDS011;3781;42.272;22.658;2022-12-05T01:33:43;2.80;;;1.87;;
7479;SDS011;3781;42.272;22.658;2022-12-05T01:36:10;5.20;;;2.97;;
7479;SDS011;3781;42.272;22.658;2022-12-05T01:38:37;5.00;;;2.13;;
7479;SDS011;3781;42.272;22.658;2022-12-05T01:41:05;6.30;;;1.77;;
7479;SDS011;3781;42.272;22.658;2022-12-05T01:46:20;9.77;;;2.83;;
7479;SDS011;3781;42.272;22.658;2022-12-05T01:48:47;3.40;;;2.20;;
7479;SDS011;3781;42.272;22.658;2022-12-05T01:51:14;0.80;;;0.80;;
7479;SDS011;3781;42.272;22.658;2022-12-05T01:53:41;1.27;;;0.97;;
7479;SDS011;3781;42.272;22.658;2022-12-05T01:56:08;1.37;;;1.27;;
7479;SDS011;3781;42.272;22.658;2022-12-05T01:58:35;1.53;;;1.20;;
7479;SDS011;3781;42.272;22.658;2022-12-05T02:01:03;3.70;;;1.80;;
7479;SDS011;3781;42.272;22.658;2022-12-05T02:03:32;5.87;;;2.57;;
7479;SDS011;3781;42.272;22.658;2022-12-05T02:06:00;1.23;;;1.23;;
7479;SDS011;3781;42.272;22.658;2022-12-05T02:08:27;3.47;;;1.60;;
7479;SDS011;3781;42.272;22.658;2022-12-05T02:10:55;4.33;;;2.13;;
7479;SDS011;3781;42.272;22.658;2022-12-05T02:13:35;1.57;;;0.93;;
7479;SDS011;3781;42.272;22.658;2022-12-05T02:16:17;1.57;;;1.17;;
7479;SDS011;3781;42.272;22.658;2022-12-05T02:19:03;0.90;;;0.90;;
7479;SDS011;3781;42.272;22.658;2022-12-05T02:21:54;1.37;;;1.27;;
7479;SDS011;3781;42.272;22.658;2022-12-05T02:24:45;2.30;;;1.00;;
7479;SDS011;3781;42.272;22.658;2022-12-05T02:27:27;3.03;;;1.60;;
7479;SDS011;3781;42.272;22.658;2022-12-05T02:30:23;2.50;;;1.83;;
7479;SDS011;3781;42.272;22.658;2022-12-05T02:32:53;1.87;;;1.77;;
7479;SDS011;3781;42.272;22.658;2022-12-05T02:35:40;1.17;;;1.03;;
7479;SDS011;3781;42.272;22.658;2022-12-05T02:38:16;2.10;;;0.93;;
7479;SDS011;3781;42.272;22.658;2022-12-05T02:40:52;2.00;;;1.77;;
7479;SDS011;3781;42.272;22.658;2022-12-05T02:43:28;0.60;;;0.57;;
7479;SDS011;3781;42.272;22.658;2022-12-05T02:46:00;2.10;;;0.70;;
7479;SDS011;3781;42.272;22.658;2022-12-05T02:48:33;3.43;;;2.10;;
7479;SDS011;3781;42.272;22.658;2022-12-05T02:51:02;1.50;;;1.00;;
7479;SDS011;3781;42.272;22.658;2022-12-05T02:53:31;6.27;;;1.67;;
7479;SDS011;3781;42.272;22.658;2022-12-05T02:56:02;3.07;;;0.87;;
7479;SDS011;3781;42.272;22.658;2022-12-05T02:58:32;7.83;;;1.47;;
7479;SDS011;3781;42.272;22.658;2022-12-05T03:01:04;0.87;;;0.87;;
7479;SDS011;3781;42.272;22.658;2022-12-05T03:03:32;0.87;;;0.67;;
7479;SDS011;3781;42.272;22.658;2022-12-05T03:06:01;0.27;;;0.27;;
7479;SDS011;3781;42.272;22.658;2022-12-05T03:08:32;2.20;;;2.00;;
7479;SDS011;3781;42.272;22.658;2022-12-05T03:11:02;2.03;;;0.80;;
7479;SDS011;3781;42.272;22.658;2022-12-05T03:13:31;1.03;;;0.53;;
7479;SDS011;3781;42.272;22.658;2022-12-05T03:16:06;2.27;;;2.10;;
7479;SDS011;3781;42.272;22.658;2022-12-05T03:18:38;1.63;;;1.53;;
7479;SDS011;3781;42.272;22.658;2022-12-05T03:21:10;1.60;;;0.47;;
7479;SDS011;3781;42.272;22.658;2022-12-05T03:23:44;4.23;;;1.37;;
7479;SDS011;3781;42.272;22.658;2022-12-05T03:26:17;0.90;;;0.87;;
7479;SDS011;3781;42.272;22.658;2022-12-05T03:28:56;1.27;;;0.90;;
7479;SDS011;3781;42.272;22.658;2022-12-05T03:31:31;0.60;;;0.60;;
7479;SDS011;3781;42.272;22.658;2022-12-05T03:34:05;1.60;;;1.50;;
7479;SDS011;3781;42.272;22.658;2022-12-05T03:36:35;1.27;;;1.03;;
7479;SDS011;3781;42.272;22.658;2022-12-05T03:39:07;2.03;;;1.73;;
7479;SDS011;3781;42.272;22.658;2022-12-05T03:41:39;3.00;;;1.17;;
7479;SDS011;3781;42.272;22.658;2022-12-05T03:44:08;8.33;;;0.70;;
7479;SDS011;3781;42.272;22.658;2022-12-05T03:46:42;5.90;;;1.87;;
7479;SDS011;3781;42.272;22.658;2022-12-05T03:49:12;1.77;;;1.40;;
7479;SDS011;3781;42.272;22.658;2022-12-05T03:51:44;1.53;;;1.33;;
7479;SDS011;3781;42.272;22.658;2022-12-05T03:54:17;2.90;;;2.13;;
7479;SDS011;3781;42.272;22.658;2022-12-05T03:56:50;3.93;;;1.63;;
7479;SDS011;3781;42.272;22.658;2022-12-05T03:59:24;0.60;;;0.60;;
7479;SDS011;3781;42.272;22.658;2022-12-05T04:01:57;3.63;;;1.73;;
7479;SDS011;3781;42.272;22.658;2022-12-05T04:04:27;1.63;;;0.80;;
7479;SDS011;3781;42.272;22.658;2022-12-05T04:06:59;2.80;;;1.30;;
7479;SDS011;3781;42.272;22.658;2022-12-05T04:09:30;0.93;;;0.50;;
7479;SDS011;3781;42.272;22.658;2022-12-05T04:12:03;1.07;;;0.70;;
7479;SDS011;3781;42.272;22.658;2022-12-05T04:14:33;12.50;;;2.27;;
7479;SDS011;3781;42.272;22.658;2022-12-05T04:17:05;0.90;;;0.83;;
7479;SDS011;3781;42.272;22.658;2022-12-05T04:19:36;1.80;;;1.30;;
7479;SDS011;3781;42.272;22.658;2022-12-05T04:22:23;30.87;;;12.53;;
7479;SDS011;3781;42.272;22.658;2022-12-05T04:24:51;8.57;;;3.93;;
7479;SDS011;3781;42.272;22.658;2022-12-05T04:27:38;6.03;;;2.13;;
7479;SDS011;3781;42.272;22.658;2022-12-05T04:30:09;7.97;;;2.53;;
7479;SDS011;3781;42.272;22.658;2022-12-05T04:32:42;6.00;;;2.07;;
7479;SDS011;3781;42.272;22.658;2022-12-05T04:35:14;1.90;;;0.77;;
7479;SDS011;3781;42.272;22.658;2022-12-05T04:37:44;2.47;;;0.77;;
7479;SDS011;3781;42.272;22.658;2022-12-05T04:40:18;0.30;;;0.30;;
7479;SDS011;3781;42.272;22.658;2022-12-05T04:42:48;1.43;;;0.70;;
7479;SDS011;3781;42.272;22.658;2022-12-05T04:45:19;0.10;;;0.10;;
7479;SDS011;3781;42.272;22.658;2022-12-05T04:47:52;0.37;;;0.37;;
7479;SDS011;3781;42.272;22.658;2022-12-05T04:50:22;2.00;;;1.07;;
7479;SDS011;3781;42.272;22.658;2022-12-05T04:52:52;0.30;;;0.13;;
7479;SDS011;3781;42.272;22.658;2022-12-05T04:55:24;0.97;;;0.40;;
7479;SDS011;3781;42.272;22.658;2022-12-05T04:57:55;2.70;;;0.80;;
7479;SDS011;3781;42.272;22.658;2022-12-05T05:00:28;0.20;;;0.20;;
7479;SDS011;3781;42.272;22.658;2022-12-05T05:02:59;1.73;;;0.97;;
7479;SDS011;3781;42.272;22.658;2022-12-05T05:05:33;3.80;;;0.50;;
7479;SDS011;3781;42.272;22.658;2022-12-05T05:08:01;4.07;;;1.03;;
7479;SDS011;3781;42.272;22.658;2022-12-05T05:10:30;1.13;;;0.50;;
7479;SDS011;3781;42.272;22.658;2022-12-05T05:13:00;2.00;;;0.83;;
7479;SDS011;3781;42.272;22.658;2022-12-05T05:15:27;0.33;;;0.33;;
7479;SDS011;3781;42.272;22.658;2022-12-05T05:17:54;1.50;;;1.40;;
7479;SDS011;3781;42.272;22.658;2022-12-05T05:20:22;0.40;;;0.40;;
7479;SDS011;3781;42.272;22.658;2022-12-05T05:22:49;1.13;;;0.60;;
7479;SDS011;3781;42.272;22.658;2022-12-05T05:25:16;1.03;;;1.03;;
7479;SDS011;3781;42.272;22.658;2022-12-05T05:27:46;4.33;;;1.90;;
7479;SDS011;3781;42.272;22.658;2022-12-05T05:30:14;0.50;;;0.30;;
7479;SDS011;3781;42.272;22.658;2022-12-05T05:32:42;2.90;;;1.70;;
7479;SDS011;3781;42.272;22.658;2022-12-05T05:35:08;0.60;;;0.60;;
7479;SDS011;3781;42.272;22.658;2022-12-05T05:37:38;0.67;;;0.67;;
7479;SDS011;3781;42.272;22.658;2022-12-05T05:40:05;1.83;;;1.33;;
7479;SDS011;3781;42.272;22.658;2022-12-05T05:42:32;2.40;;;0.67;;
7479;SDS011;3781;42.272;22.658;2022-12-05T05:44:59;4.40;;;0.87;;
7479;SDS011;3781;42.272;22.658;2022-12-05T05:47:26;1.40;;;0.60;;
7479;SDS011;3781;42.272;22.658;2022-12-05T05:49:53;1.30;;;0.93;;
7479;SDS011;3781;42.272;22.658;2022-12-05T05:52:19;0.93;;;0.93;;
7479;SDS011;3781;42.272;22.658;2022-12-05T05:54:47;1.43;;;1.33;;
7479;SDS011;3781;42.272;22.658;2022-12-05T05:57:14;1.30;;;1.30;;
7479;SDS011;3781;42.272;22.658;2022-12-05T05:59:41;0.83;;;0.83;;
7479;SDS011;3781;42.272;22.658;2022-12-05T06:02:08;2.47;;;2.07;;
7479;SDS011;3781;42.272;22.658;2022-12-05T06:04:34;4.67;;;2.17;;
7479;SDS011;3781;42.272;22.658;2022-12-05T06:07:01;11.50;;;4.73;;
7479;SDS011;3781;42.272;22.658;2022-12-05T06:09:28;5.50;;;3.43;;
7479;SDS011;3781;42.272;22.658;2022-12-05T06:11:56;7.20;;;3.27;;
7479;SDS011;3781;42.272;22.658;2022-12-05T06:14:23;1.50;;;1.50;;
7479;SDS011;3781;42.272;22.658;2022-12-05T06:16:49;9.83;;;3.97;;
7479;SDS011;3781;42.272;22.658;2022-12-05T06:19:16;9.33;;;5.07;;
7479;SDS011;3781;42.272;22.658;2022-12-05T06:21:43;4.10;;;2.97;;
7479;SDS011;3781;42.272;22.658;2022-12-05T06:24:09;11.37;;;4.83;;
7479;SDS011;3781;42.272;22.658;2022-12-05T06:26:36;8.90;;;5.53;;
7479;SDS011;3781;42.272;22.658;2022-12-05T06:29:04;14.57;;;4.53;;
7479;SDS011;3781;42.272;22.658;2022-12-05T06:31:31;14.53;;;5.43;;
7479;SDS011;3781;42.272;22.658;2022-12-05T06:33:59;21.67;;;6.63;;
7479;SDS011;3781;42.272;22.658;2022-12-05T06:36:27;16.13;;;5.97;;
7479;SDS011;3781;42.272;22.658;2022-12-05T06:38:55;13.97;;;7.13;;
7479;SDS011;3781;42.272;22.658;2022-12-05T06:41:22;15.40;;;5.67;;
7479;SDS011;3781;42.272;22.658;2022-12-05T06:43:51;13.77;;;5.80;;
7479;SDS011;3781;42.272;22.658;2022-12-05T06:46:20;7.30;;;3.33;;
7479;SDS011;3781;42.272;22.658;2022-12-05T06:48:47;8.10;;;4.03;;
7479;SDS011;3781;42.272;22.658;2022-12-05T06:51:15;15.83;;;4.50;;
7479;SDS011;3781;42.272;22.658;2022-12-05T06:53:42;13.77;;;4.67;;
7479;SDS011;3781;42.272;22.658;2022-12-05T06:56:09;9.17;;;4.27;;
7479;SDS011;3781;42.272;22.658;2022-12-05T06:58:38;11.23;;;5.97;;
7479;SDS011;3781;42.272;22.658;2022-12-05T07:01:08;21.03;;;7.70;;
7479;SDS011;3781;42.272;22.658;2022-12-05T07:03:55;7.37;;;4.77;;
7479;SDS011;3781;42.272;22.658;2022-12-05T07:06:22;10.17;;;3.67;;
7479;SDS011;3781;42.272;22.658;2022-12-05T07:08:49;19.67;;;6.70;;
7479;SDS011;3781;42.272;22.658;2022-12-05T07:11:16;13.83;;;3.87;;
7479;SDS011;3781;42.272;22.658;2022-12-05T07:13:42;5.63;;;4.03;;
7479;SDS011;3781;42.272;22.658;2022-12-05T07:16:09;29.87;;;9.33;;
7479;SDS011;3781;42.272;22.658;2022-12-05T07:18:36;21.27;;;12.43;;
7479;SDS011;3781;42.272;22.658;2022-12-05T07:21:05;11.20;;;5.47;;
7479;SDS011;3781;42.272;22.658;2022-12-05T07:23:33;4.23;;;3.27;;
7479;SDS011;3781;42.272;22.658;2022-12-05T07:26:02;4.00;;;3.63;;
7479;SDS011;3781;42.272;22.658;2022-12-05T07:28:30;3.73;;;2.63;;
7479;SDS011;3781;42.272;22.658;2022-12-05T07:31:00;3.83;;;2.97;;
7479;SDS011;3781;42.272;22.658;2022-12-05T07:33:27;6.20;;;3.30;;
7479;SDS011;3781;42.272;22.658;2022-12-05T07:35:58;6.20;;;3.20;;
7479;SDS011;3781;42.272;22.658;2022-12-05T07:38:27;2.47;;;2.37;;
7479;SDS011;3781;42.272;22.658;2022-12-05T07:40:54;4.20;;;3.27;;
7479;SDS011;3781;42.272;22.658;2022-12-05T07:43:20;5.70;;;2.20;;
7479;SDS011;3781;42.272;22.658;2022-12-05T07:45:47;5.00;;;2.83;;
7479;SDS011;3781;42.272;22.658;2022-12-05T07:48:14;14.43;;;3.47;;
7479;SDS011;3781;42.272;22.658;2022-12-05T07:50:41;2.37;;;2.17;;
7479;SDS011;3781;42.272;22.658;2022-12-05T07:53:08;6.20;;;1.50;;
7479;SDS011;3781;42.272;22.658;2022-12-05T07:55:37;7.17;;;3.47;;
7479;SDS011;3781;42.272;22.658;2022-12-05T07:58:04;2.60;;;2.40;;
7479;SDS011;3781;42.272;22.658;2022-12-05T08:00:31;3.63;;;1.97;;
7479;SDS011;3781;42.272;22.658;2022-12-05T08:02:57;12.63;;;2.93;;
7479;SDS011;3781;42.272;22.658;2022-12-05T08:05:24;4.30;;;2.27;;
7479;SDS011;3781;42.272;22.658;2022-12-05T08:07:51;2.27;;;2.07;;
7479;SDS011;3781;42.272;22.658;2022-12-05T08:10:17;4.73;;;3.03;;
7479;SDS011;3781;42.272;22.658;2022-12-05T08:12:45;6.23;;;2.70;;
7479;SDS011;3781;42.272;22.658;2022-12-05T08:15:12;6.33;;;1.90;;
7479;SDS011;3781;42.272;22.658;2022-12-05T08:17:39;4.57;;;2.87;;
7479;SDS011;3781;42.272;22.658;2022-12-05T08:20:06;2.63;;;1.63;;
7479;SDS011;3781;42.272;22.658;2022-12-05T08:22:33;4.53;;;1.20;;
7479;SDS011;3781;42.272;22.658;2022-12-05T08:25:00;0.77;;;0.77;;
7479;SDS011;3781;42.272;22.658;2022-12-05T08:27:27;5.50;;;2.80;;
7479;SDS011;3781;42.272;22.658;2022-12-05T08:29:55;1.83;;;1.73;;
7479;SDS011;3781;42.272;22.658;2022-12-05T08:32:22;2.80;;;2.60;;
7479;SDS011;3781;42.272;22.658;2022-12-05T08:34:48;3.80;;;2.83;;
7479;SDS011;3781;42.272;22.658;2022-12-05T08:37:15;5.57;;;1.63;;
7479;SDS011;3781;42.272;22.658;2022-12-05T08:39:42;2.00;;;1.17;;
7479;SDS011;3781;42.272;22.658;2022-12-05T08:42:08;2.87;;;2.17;;
7479;SDS011;3781;42.272;22.658;2022-12-05T08:44:35;2.97;;;2.17;;
7479;SDS011;3781;42.272;22.658;2022-12-05T08:47:03;4.23;;;2.57;;
7479;SDS011;3781;42.272;22.658;2022-12-05T08:49:30;2.03;;;1.20;;
7479;SDS011;3781;42.272;22.658;2022-12-05T08:51:57;2.17;;;1.43;;
7479;SDS011;3781;42.272;22.658;2022-12-05T08:54:24;3.80;;;2.10;;
7479;SDS011;3781;42.272;22.658;2022-12-05T08:56:50;3.63;;;1.33;;
7479;SDS011;3781;42.272;22.658;2022-12-05T08:59:17;0.97;;;0.93;;
7479;SDS011;3781;42.272;22.658;2022-12-05T09:01:44;2.60;;;1.83;;
7479;SDS011;3781;42.272;22.658;2022-12-05T09:04:13;9.67;;;2.80;;
7479;SDS011;3781;42.272;22.658;2022-12-05T09:06:40;6.43;;;3.20;;
7479;SDS011;3781;42.272;22.658;2022-12-05T09:09:08;1.97;;;1.80;;
7479;SDS011;3781;42.272;22.658;2022-12-05T09:11:37;2.90;;;1.27;;
7479;SDS011;3781;42.272;22.658;2022-12-05T09:14:08;5.40;;;2.33;;
7479;SDS011;3781;42.272;22.658;2022-12-05T09:16:35;2.77;;;2.20;;
7479;SDS011;3781;42.272;22.658;2022-12-05T09:19:03;2.03;;;1.50;;
7479;SDS011;3781;42.272;22.658;2022-12-05T09:21:32;3.13;;;1.40;;
7479;SDS011;3781;42.272;22.658;2022-12-05T09:23:59;8.53;;;2.87;;
7479;SDS011;3781;42.272;22.658;2022-12-05T09:26:26;1.67;;;1.37;;
7479;SDS011;3781;42.272;22.658;2022-12-05T09:28:55;2.03;;;1.93;;
7479;SDS011;3781;42.272;22.658;2022-12-05T09:31:23;7.40;;;2.57;;
7479;SDS011;3781;42.272;22.658;2022-12-05T09:33:51;6.37;;;2.20;;
7479;SDS011;3781;42.272;22.658;2022-12-05T09:36:18;0.83;;;0.83;;
7479;SDS011;3781;42.272;22.658;2022-12-05T09:38:48;1.80;;;1.67;;
7479;SDS011;3781;42.272;22.658;2022-12-05T09:41:19;2.43;;;1.77;;
7479;SDS011;3781;42.272;22.658;2022-12-05T09:44:16;2.00;;;0.70;;
7479;SDS011;3781;42.272;22.658;2022-12-05T09:46:49;3.63;;;1.50;;
7479;SDS011;3781;42.272;22.658;2022-12-05T09:49:20;0.47;;;0.47;;
7479;SDS011;3781;42.272;22.658;2022-12-05T09:51:49;4.80;;;1.17;;
7479;SDS011;3781;42.272;22.658;2022-12-05T09:54:20;1.80;;;0.93;;
7479;SDS011;3781;42.272;22.658;2022-12-05T09:56:48;5.33;;;1.73;;
7479;SDS011;3781;42.272;22.658;2022-12-05T09:59:17;2.30;;;1.60;;
7479;SDS011;3781;42.272;22.658;2022-12-05T10:01:47;3.60;;;1.80;;
7479;SDS011;3781;42.272;22.658;2022-12-05T10:04:28;4.27;;;1.67;;
7479;SDS011;3781;42.272;22.658;2022-12-05T10:07:12;2.90;;;1.07;;
7479;SDS011;3781;42.272;22.658;2022-12-05T10:09:52;6.27;;;3.67;;
7479;SDS011;3781;42.272;22.658;2022-12-05T10:15:19;4.17;;;1.73;;
7479;SDS011;3781;42.272;22.658;2022-12-05T10:17:56;3.57;;;2.90;;
7479;SDS011;3781;42.272;22.658;2022-12-05T10:20:26;5.73;;;2.83;;
7479;SDS011;3781;42.272;22.658;2022-12-05T10:22:58;5.27;;;2.60;;
7479;SDS011;3781;42.272;22.658;2022-12-05T10:25:30;5.63;;;3.03;;
7479;SDS011;3781;42.272;22.658;2022-12-05T10:28:00;5.90;;;2.43;;
7479;SDS011;3781;42.272;22.658;2022-12-05T10:30:32;3.80;;;2.23;;
7479;SDS011;3781;42.272;22.658;2022-12-05T10:33:01;2.27;;;1.30;;
7479;SDS011;3781;42.272;22.658;2022-12-05T10:35:31;6.90;;;2.47;;
7479;SDS011;3781;42.272;22.658;2022-12-05T10:38:02;2.33;;;2.00;;
7479;SDS011;3781;42.272;22.658;2022-12-05T10:40:33;14.50;;;3.57;;
7479;SDS011;3781;42.272;22.658;2022-12-05T10:43:04;3.73;;;2.83;;
7479;SDS011;3781;42.272;22.658;2022-12-05T10:45:32;7.87;;;3.27;;
7479;SDS011;3781;42.272;22.658;2022-12-05T10:48:08;7.20;;;3.77;;
7479;SDS011;3781;42.272;22.658;2022-12-05T10:50:37;8.00;;;3.73;;
7479;SDS011;3781;42.272;22.658;2022-12-05T10:53:06;19.47;;;8.27;;
7479;SDS011;3781;42.272;22.658;2022-12-05T10:55:35;11.77;;;4.97;;
7479;SDS011;3781;42.272;22.658;2022-12-05T10:58:09;4.77;;;3.37;;
7479;SDS011;3781;42.272;22.658;2022-12-05T11:00:37;7.70;;;3.93;;
7479;SDS011;3781;42.272;22.658;2022-12-05T11:03:21;4.80;;;2.17;;
7479;SDS011;3781;42.272;22.658;2022-12-05T11:05:51;6.40;;;3.77;;
7479;SDS011;3781;42.272;22.658;2022-12-05T11:08:22;9.47;;;3.97;;
7479;SDS011;3781;42.272;22.658;2022-12-05T11:11:03;8.50;;;4.27;;
7479;SDS011;3781;42.272;22.658;2022-12-05T11:13:32;13.60;;;4.93;;
7479;SDS011;3781;42.272;22.658;2022-12-05T11:15:59;16.77;;;5.53;;
7479;SDS011;3781;42.272;22.658;2022-12-05T11:18:28;13.03;;;5.17;;
7479;SDS011;3781;42.272;22.658;2022-12-05T11:20:57;9.00;;;5.53;;
7479;SDS011;3781;42.272;22.658;2022-12-05T11:23:35;12.57;;;5.30;;
7479;SDS011;3781;42.272;22.658;2022-12-05T11:26:03;15.47;;;5.80;;
7479;SDS011;3781;42.272;22.658;2022-12-05T11:28:31;9.57;;;5.30;;
7479;SDS011;3781;42.272;22.658;2022-12-05T11:31:01;15.63;;;5.67;;
7479;SDS011;3781;42.272;22.658;2022-12-05T11:33:30;25.83;;;7.03;;
7479;SDS011;3781;42.272;22.658;2022-12-05T11:36:00;10.37;;;5.20;;
7479;SDS011;3781;42.272;22.658;2022-12-05T11:38:31;9.40;;;5.57;;
7479;SDS011;3781;42.272;22.658;2022-12-05T11:41:04;10.93;;;3.63;;
7479;SDS011;3781;42.272;22.658;2022-12-05T11:43:57;12.30;;;5.33;;
7479;SDS011;3781;42.272;22.658;2022-12-05T11:46:41;6.33;;;4.43;;
7479;SDS011;3781;42.272;22.658;2022-12-05T11:49:28;7.73;;;3.77;;
7479;SDS011;3781;42.272;22.658;2022-12-05T11:52:07;8.67;;;4.57;;
7479;SDS011;3781;42.272;22.658;2022-12-05T11:54:54;10.23;;;3.87;;
7479;SDS011;3781;42.272;22.658;2022-12-05T11:57:36;11.70;;;4.87;;
7479;SDS011;3781;42.272;22.658;2022-12-05T12:00:18;5.67;;;3.37;;
7479;SDS011;3781;42.272;22.658;2022-12-05T12:02:55;15.20;;;4.80;;
7479;SDS011;3781;42.272;22.658;2022-12-05T12:05:43;9.70;;;3.77;;
7479;SDS011;3781;42.272;22.658;2022-12-05T12:08:20;10.50;;;4.70;;
7479;SDS011;3781;42.272;22.658;2022-12-05T12:10:52;7.30;;;3.83;;
7479;SDS011;3781;42.272;22.658;2022-12-05T12:13:38;10.77;;;5.53;;
7479;SDS011;3781;42.272;22.658;2022-12-05T12:16:16;7.57;;;3.90;;
7479;SDS011;3781;42.272;22.658;2022-12-05T12:18:56;9.00;;;4.20;;
7479;SDS011;3781;42.272;22.658;2022-12-05T12:21:37;14.33;;;5.33;;
7479;SDS011;3781;42.272;22.658;2022-12-05T12:24:19;5.93;;;2.87;;
7479;SDS011;3781;42.272;22.658;2022-12-05T12:26:54;11.00;;;4.00;;
7479;SDS011;3781;42.272;22.658;2022-12-05T12:29:33;8.87;;;4.27;;
7479;SDS011;3781;42.272;22.658;2022-12-05T12:32:13;5.37;;;2.67;;
7479;SDS011;3781;42.272;22.658;2022-12-05T12:38:04;6.50;;;3.33;;
7479;SDS011;3781;42.272;22.658;2022-12-05T12:40:53;5.50;;;4.07;;
7479;SDS011;3781;42.272;22.658;2022-12-05T12:43:34;6.37;;;4.17;;
7479;SDS011;3781;42.272;22.658;2022-12-05T12:46:14;8.23;;;3.77;;
7479;SDS011;3781;42.272;22.658;2022-12-05T12:48:58;13.23;;;6.20;;
7479;SDS011;3781;42.272;22.658;2022-12-05T12:51:34;10.63;;;6.30;;
7479;SDS011;3781;42.272;22.658;2022-12-05T12:54:12;5.33;;;4.00;;
7479;SDS011;3781;42.272;22.658;2022-12-05T12:56:51;4.63;;;2.80;;
7479;SDS011;3781;42.272;22.658;2022-12-05T13:02:21;11.07;;;3.43;;
7479;SDS011;3781;42.272;22.658;2022-12-05T13:04:52;3.60;;;3.27;;
7479;SDS011;3781;42.272;22.658;2022-12-05T13:07:25;4.70;;;2.83;;
7479;SDS011;3781;42.272;22.658;2022-12-05T13:09:58;5.87;;;2.60;;
7479;SDS011;3781;42.272;22.658;2022-12-05T13:12:30;8.97;;;4.83;;
7479;SDS011;3781;42.272;22.658;2022-12-05T13:15:00;7.60;;;3.67;;
7479;SDS011;3781;42.272;22.658;2022-12-05T13:17:30;8.60;;;4.10;;
7479;SDS011;3781;42.272;22.658;2022-12-05T13:19:58;13.00;;;4.27;;
7479;SDS011;3781;42.272;22.658;2022-12-05T13:22:26;9.50;;;5.20;;
7479;SDS011;3781;42.272;22.658;2022-12-05T13:24:54;9.07;;;4.40;;
7479;SDS011;3781;42.272;22.658;2022-12-05T13:27:22;33.33;;;13.07;;
7479;SDS011;3781;42.272;22.658;2022-12-05T13:29:51;14.27;;;8.03;;
7479;SDS011;3781;42.272;22.658;2022-12-05T13:32:24;14.83;;;4.30;;
7479;SDS011;3781;42.272;22.658;2022-12-05T13:34:55;12.87;;;6.00;;
7479;SDS011;3781;42.272;22.658;2022-12-05T13:37:25;11.13;;;4.53;;
7479;SDS011;3781;42.272;22.658;2022-12-05T13:40:21;11.47;;;3.33;;
7479;SDS011;3781;42.272;22.658;2022-12-05T13:43:08;4.37;;;3.90;;
7479;SDS011;3781;42.272;22.658;2022-12-05T13:45:37;8.60;;;3.87;;
7479;SDS011;3781;42.272;22.658;2022-12-05T13:48:09;3.23;;;2.37;;
7479;SDS011;3781;42.272;22.658;2022-12-05T13:50:47;7.67;;;3.70;;
7479;SDS011;3781;42.272;22.658;2022-12-05T13:53:26;6.23;;;3.43;;
7479;SDS011;3781;42.272;22.658;2022-12-05T13:55:58;5.07;;;2.60;;
7479;SDS011;3781;42.272;22.658;2022-12-05T13:58:38;9.87;;;3.40;;
7479;SDS011;3781;42.272;22.658;2022-12-05T14:10:08;7.40;;;3.30;;
7479;SDS011;3781;42.272;22.658;2022-12-05T14:15:26;7.03;;;3.27;;
7479;SDS011;3781;42.272;22.658;2022-12-05T14:18:05;5.27;;;2.63;;
7479;SDS011;3781;42.272;22.658;2022-12-05T14:20:44;8.70;;;4.30;;
7479;SDS011;3781;42.272;22.658;2022-12-05T14:23:18;11.73;;;3.53;;
7479;SDS011;3781;42.272;22.658;2022-12-05T14:26:07;6.10;;;3.50;;
7479;SDS011;3781;42.272;22.658;2022-12-05T14:28:53;8.83;;;5.33;;
7479;SDS011;3781;42.272;22.658;2022-12-05T14:31:32;9.17;;;5.13;;
7479;SDS011;3781;42.272;22.658;2022-12-05T14:34:16;10.87;;;5.00;;
7479;SDS011;3781;42.272;22.658;2022-12-05T14:36:56;8.20;;;2.87;;
7479;SDS011;3781;42.272;22.658;2022-12-05T14:39:29;6.00;;;3.73;;
7479;SDS011;3781;42.272;22.658;2022-12-05T14:41:59;3.70;;;2.60;;
7479;SDS011;3781;42.272;22.658;2022-12-05T14:44:28;3.30;;;1.80;;
7479;SDS011;3781;42.272;22.658;2022-12-05T14:46:57;3.10;;;2.03;;
7479;SDS011;3781;42.272;22.658;2022-12-05T14:49:33;5.53;;;3.13;;
7479;SDS011;3781;42.272;22.658;2022-12-05T14:52:07;3.07;;;2.83;;
7479;SDS011;3781;42.272;22.658;2022-12-05T14:54:38;1.93;;;1.67;;
7479;SDS011;3781;42.272;22.658;2022-12-05T14:57:08;10.67;;;5.10;;
7479;SDS011;3781;42.272;22.658;2022-12-05T14:59:40;14.23;;;4.23;;
7479;SDS011;3781;42.272;22.658;2022-12-05T15:02:15;9.90;;;6.00;;
7479;SDS011;3781;42.272;22.658;2022-12-05T15:04:46;6.23;;;3.73;;
7479;SDS011;3781;42.272;22.658;2022-12-05T15:07:18;7.27;;;3.13;;
7479;SDS011;3781;42.272;22.658;2022-12-05T15:09:52;6.27;;;2.87;;
7479;SDS011;3781;42.272;22.658;2022-12-05T15:12:24;2.37;;;2.17;;
7479;SDS011;3781;42.272;22.658;2022-12-05T15:14:58;5.77;;;1.93;;
7479;SDS011;3781;42.272;22.658;2022-12-05T15:17:34;4.70;;;1.47;;
7479;SDS011;3781;42.272;22.658;2022-12-05T15:20:04;6.53;;;2.83;;
7479;SDS011;3781;42.272;22.658;2022-12-05T15:22:39;4.23;;;2.47;;
7479;SDS011;3781;42.272;22.658;2022-12-05T15:25:14;3.73;;;1.83;;
7479;SDS011;3781;42.272;22.658;2022-12-05T15:27:51;5.53;;;2.23;;
7479;SDS011;3781;42.272;22.658;2022-12-05T15:30:19;3.27;;;2.60;;
7479;SDS011;3781;42.272;22.658;2022-12-05T15:32:46;2.93;;;2.53;;
7479;SDS011;3781;42.272;22.658;2022-12-05T15:35:13;4.03;;;1.87;;
7479;SDS011;3781;42.272;22.658;2022-12-05T15:37:43;1.93;;;1.83;;
7479;SDS011;3781;42.272;22.658;2022-12-05T15:42:46;8.20;;;5.00;;
7479;SDS011;3781;42.272;22.658;2022-12-05T15:45:15;5.00;;;2.67;;
7479;SDS011;3781;42.272;22.658;2022-12-05T15:47:45;7.83;;;2.60;;
7479;SDS011;3781;42.272;22.658;2022-12-05T15:50:13;2.90;;;2.07;;